sensor_id;sensor_type;location;lat;lon;timestamp;temperature;humidity
15937;DHT22;9163;48.818;8.976;2023-06-22T00:00:17;20.00;99.90
15937;DHT22;9163;48.818;8.976;2023-06-22T00:02:44;20.00;99.90
15937;DHT22;9163;48.818;8.976;2023-06-22T00:05:11;20.00;99.90
15937;DHT22;9163;48.818;8.976;2023-06-22T00:07:40;19.90;99.90
15937;DHT22;9163;48.818;8.976;2023-06-22T00:10:08;19.90;99.90
15937;DHT22;9163;48.818;8.976;2023-06-22T00:12:35;19.80;99.90
15937;DHT22;9163;48.818;8.976;2023-06-22T00:15:03;19.80;99.90
15937;DHT22;9163;48.818;8.976;2023-06-22T00:17:30;19.70;99.90
15937;DHT22;9163;48.818;8.976;2023-06-22T00:19:57;19.70;99.90
15937;DHT22;9163;48.818;8.976;2023-06-22T00:22:26;19.60;99.90
15937;DHT22;9163;48.818;8.976;2023-06-22T00:24:56;19.60;99.90
15937;DHT22;9163;48.818;8.976;2023-06-22T00:27:24;19.60;99.90
15937;DHT22;9163;48.818;8.976;2023-06-22T00:29:51;19.60;99.90
15937;DHT22;9163;48.818;8.976;2023-06-22T00:32:18;19.60;99.90
15937;DHT22;9163;48.818;8.976;2023-06-22T00:34:45;19.60;99.90
15937;DHT22;9163;48.818;8.976;2023-06-22T00:37:13;19.60;99.90
15937;DHT22;9163;48.818;8.976;2023-06-22T00:39:40;19.60;99.90
15937;DHT22;9163;48.818;8.976;2023-06-22T00:42:09;19.60;99.90
15937;DHT22;9163;48.818;8.976;2023-06-22T00:44:36;19.60;99.90
15937;DHT22;9163;48.818;8.976;2023-06-22T00:47:03;19.60;99.90
15937;DHT22;9163;48.818;8.976;2023-06-22T00:49:32;19.60;99.90
15937;DHT22;9163;48.818;8.976;2023-06-22T00:52:00;19.60;99.90
15937;DHT22;9163;48.818;8.976;2023-06-22T00:54:27;19.60;99.90
15937;DHT22;9163;48.818;8.976;2023-06-22T00:56:55;19.70;99.90
15937;DHT22;9163;48.818;8.976;2023-06-22T00:59:26;19.70;99.90
15937;DHT22;9163;48.818;8.976;2023-06-22T01:01:53;19.70;99.90
15937;DHT22;9163;48.818;8.976;2023-06-22T01:04:24;19.70;99.90
15937;DHT22;9163;48.818;8.976;2023-06-22T01:06:56;19.70;99.90
15937;DHT22;9163;48.818;8.976;2023-06-22T01:09:31;19.60;99.90
15937;DHT22;9163;48.818;8.976;2023-06-22T01:12:02;19.50;99.90
15937;DHT22;9163;48.818;8.976;2023-06-22T01:14:37;19.40;99.90
15937;DHT22;9163;48.818;8.976;2023-06-22T01:17:05;19.40;99.90
15937;DHT22;9163;48.818;8.976;2023-06-22T01:19:39;19.40;99.90
15937;DHT22;9163;48.818;8.976;2023-06-22T01:22:10;19.40;99.90
15937;DHT22;9163;48.818;8.976;2023-06-22T01:24:48;19.30;99.90
15937;DHT22;9163;48.818;8.976;2023-06-22T01:27:36;19.30;99.90
15937;DHT22;9163;48.818;8.976;2023-06-22T01:30:09;19.20;99.90
15937;DHT22;9163;48.818;8.976;2023-06-22T01:32:38;19.10;99.90
15937;DHT22;9163;48.818;8.976;2023-06-22T01:35:08;19.10;99.90
15937;DHT22;9163;48.818;8.976;2023-06-22T01:37:37;19.00;99.90
15937;DHT22;9163;48.818;8.976;2023-06-22T01:40:06;19.00;99.90
15937;DHT22;9163;48.818;8.976;2023-06-22T01:42:35;19.10;99.90
15937;DHT22;9163;48.818;8.976;2023-06-22T01:45:03;19.00;99.90
15937;DHT22;9163;48.818;8.976;2023-06-22T01:47:32;19.00;99.90
15937;DHT22;9163;48.818;8.976;2023-06-22T01:49:59;19.10;99.90
15937;DHT22;9163;48.818;8.976;2023-06-22T01:52:26;19.00;99.90
15937;DHT22;9163;48.818;8.976;2023-06-22T01:54:53;18.90;99.90
15937;DHT22;9163;48.818;8.976;2023-06-22T01:57:23;18.90;99.90
15937;DHT22;9163;48.818;8.976;2023-06-22T01:59:57;18.90;99.90
15937;DHT22;9163;48.818;8.976;2023-06-22T02:02:29;18.90;99.90
15937;DHT22;9163;48.818;8.976;2023-06-22T02:05:03;18.90;99.90
15937;DHT22;9163;48.818;8.976;2023-06-22T02:07:37;18.80;99.90
15937;DHT22;9163;48.818;8.976;2023-06-22T02:10:07;18.80;99.90
15937;DHT22;9163;48.818;8.976;2023-06-22T02:12:36;18.80;99.90
15937;DHT22;9163;48.818;8.976;2023-06-22T02:15:05;18.80;99.90
15937;DHT22;9163;48.818;8.976;2023-06-22T02:17:33;18.80;99.90
15937;DHT22;9163;48.818;8.976;2023-06-22T02:20:02;18.70;99.90
15937;DHT22;9163;48.818;8.976;2023-06-22T02:22:31;18.70;99.90
15937;DHT22;9163;48.818;8.976;2023-06-22T02:24:59;18.80;99.90
15937;DHT22;9163;48.818;8.976;2023-06-22T02:27:26;18.80;99.90
15937;DHT22;9163;48.818;8.976;2023-06-22T02:29:54;18.70;99.90
15937;DHT22;9163;48.818;8.976;2023-06-22T02:32:21;18.70;99.90
15937;DHT22;9163;48.818;8.976;2023-06-22T02:34:48;18.70;99.90
15937;DHT22;9163;48.818;8.976;2023-06-22T02:37:17;18.70;99.90
15937;DHT22;9163;48.818;8.976;2023-06-22T02:39:44;18.70;99.90
15937;DHT22;9163;48.818;8.976;2023-06-22T02:42:12;18.70;99.90
15937;DHT22;9163;48.818;8.976;2023-06-22T02:44:39;18.70;99.90
15937;DHT22;9163;48.818;8.976;2023-06-22T02:47:07;18.60;99.90
15937;DHT22;9163;48.818;8.976;2023-06-22T02:49:35;18.60;99.90
15937;DHT22;9163;48.818;8.976;2023-06-22T02:52:02;18.50;99.90
15937;DHT22;9163;48.818;8.976;2023-06-22T02:54:31;18.40;99.90
15937;DHT22;9163;48.818;8.976;2023-06-22T02:56:59;18.40;99.90
15937;DHT22;9163;48.818;8.976;2023-06-22T02:59:28;18.40;99.90
15937;DHT22;9163;48.818;8.976;2023-06-22T03:01:55;18.30;99.90
15937;DHT22;9163;48.818;8.976;2023-06-22T03:04:23;18.40;99.90
15937;DHT22;9163;48.818;8.976;2023-06-22T03:06:50;18.30;99.90
15937;DHT22;9163;48.818;8.976;2023-06-22T03:09:17;18.20;99.90
15937;DHT22;9163;48.818;8.976;2023-06-22T03:11:46;18.20;99.90
15937;DHT22;9163;48.818;8.976;2023-06-22T03:14:13;18.20;99.90
15937;DHT22;9163;48.818;8.976;2023-06-22T03:16:40;18.20;99.90
15937;DHT22;9163;48.818;8.976;2023-06-22T03:19:08;18.20;99.90
15937;DHT22;9163;48.818;8.976;2023-06-22T03:21:35;18.20;99.90
15937;DHT22;9163;48.818;8.976;2023-06-22T03:24:03;18.20;99.90
15937;DHT22;9163;48.818;8.976;2023-06-22T03:26:31;18.10;99.90
15937;DHT22;9163;48.818;8.976;2023-06-22T03:28:59;18.10;99.90
15937;DHT22;9163;48.818;8.976;2023-06-22T03:31:27;18.10;99.90
15937;DHT22;9163;48.818;8.976;2023-06-22T03:33:54;18.10;99.90
15937;DHT22;9163;48.818;8.976;2023-06-22T03:36:21;18.10;99.90
15937;DHT22;9163;48.818;8.976;2023-06-22T03:38:50;18.10;99.90
15937;DHT22;9163;48.818;8.976;2023-06-22T03:41:17;18.10;99.90
15937;DHT22;9163;48.818;8.976;2023-06-22T03:43:44;18.10;99.90
15937;DHT22;9163;48.818;8.976;2023-06-22T03:46:13;18.10;99.90
15937;DHT22;9163;48.818;8.976;2023-06-22T03:48:40;18.10;99.90
15937;DHT22;9163;48.818;8.976;2023-06-22T03:51:08;18.20;99.90
15937;DHT22;9163;48.818;8.976;2023-06-22T03:53:35;18.10;99.90
15937;DHT22;9163;48.818;8.976;2023-06-22T03:56:03;18.10;99.90
15937;DHT22;9163;48.818;8.976;2023-06-22T03:58:30;18.20;99.90
15937;DHT22;9163;48.818;8.976;2023-06-22T04:00:59;18.20;99.90
15937;DHT22;9163;48.818;8.976;2023-06-22T04:03:28;18.20;99.90
15937;DHT22;9163;48.818;8.976;2023-06-22T04:05:55;18.20;99.90
15937;DHT22;9163;48.818;8.976;2023-06-22T04:08:22;18.30;99.90
15937;DHT22;9163;48.818;8.976;2023-06-22T04:10:49;18.30;99.90
15937;DHT22;9163;48.818;8.976;2023-06-22T04:13:17;18.40;99.90
15937;DHT22;9163;48.818;8.976;2023-06-22T04:15:44;18.40;99.90
15937;DHT22;9163;48.818;8.976;2023-06-22T04:18:11;18.50;99.90
15937;DHT22;9163;48.818;8.976;2023-06-22T04:20:40;18.50;99.90
15937;DHT22;9163;48.818;8.976;2023-06-22T04:23:07;18.60;99.90
15937;DHT22;9163;48.818;8.976;2023-06-22T04:25:35;18.70;99.90
15937;DHT22;9163;48.818;8.976;2023-06-22T04:28:02;18.80;99.90
15937;DHT22;9163;48.818;8.976;2023-06-22T04:30:32;18.90;99.90
15937;DHT22;9163;48.818;8.976;2023-06-22T04:33:00;18.90;99.90
15937;DHT22;9163;48.818;8.976;2023-06-22T04:35:27;19.00;99.90
15937;DHT22;9163;48.818;8.976;2023-06-22T04:37:58;19.00;99.90
15937;DHT22;9163;48.818;8.976;2023-06-22T04:40:25;19.10;99.90
15937;DHT22;9163;48.818;8.976;2023-06-22T04:42:53;19.10;99.90
15937;DHT22;9163;48.818;8.976;2023-06-22T04:45:21;19.20;99.90
15937;DHT22;9163;48.818;8.976;2023-06-22T04:47:48;19.30;99.90
15937;DHT22;9163;48.818;8.976;2023-06-22T04:50:15;19.40;99.90
15937;DHT22;9163;48.818;8.976;2023-06-22T04:52:43;19.40;99.90
15937;DHT22;9163;48.818;8.976;2023-06-22T04:55:12;19.60;99.90
15937;DHT22;9163;48.818;8.976;2023-06-22T04:57:44;19.70;99.90
15937;DHT22;9163;48.818;8.976;2023-06-22T05:00:15;19.80;99.90
15937;DHT22;9163;48.818;8.976;2023-06-22T05:02:44;19.80;99.90
15937;DHT22;9163;48.818;8.976;2023-06-22T05:05:11;19.90;99.90
15937;DHT22;9163;48.818;8.976;2023-06-22T05:07:41;19.80;99.90
15937;DHT22;9163;48.818;8.976;2023-06-22T05:10:11;19.90;99.90
15937;DHT22;9163;48.818;8.976;2023-06-22T05:12:39;20.00;99.90
15937;DHT22;9163;48.818;8.976;2023-06-22T05:15:08;20.20;99.90
15937;DHT22;9163;48.818;8.976;2023-06-22T05:17:36;20.30;99.90
15937;DHT22;9163;48.818;8.976;2023-06-22T05:20:09;20.50;99.90
15937;DHT22;9163;48.818;8.976;2023-06-22T05:22:37;20.60;99.90
15937;DHT22;9163;48.818;8.976;2023-06-22T05:25:07;20.60;99.90
15937;DHT22;9163;48.818;8.976;2023-06-22T05:27:37;20.70;99.90
15937;DHT22;9163;48.818;8.976;2023-06-22T05:30:07;20.80;99.90
15937;DHT22;9163;48.818;8.976;2023-06-22T05:32:35;21.00;99.90
15937;DHT22;9163;48.818;8.976;2023-06-22T05:35:03;21.00;99.90
15937;DHT22;9163;48.818;8.976;2023-06-22T05:37:30;21.10;99.90
15937;DHT22;9163;48.818;8.976;2023-06-22T05:39:57;21.10;99.90
15937;DHT22;9163;48.818;8.976;2023-06-22T05:42:24;21.10;99.90
15937;DHT22;9163;48.818;8.976;2023-06-22T05:44:53;21.10;99.90
15937;DHT22;9163;48.818;8.976;2023-06-22T05:47:21;21.10;99.90
15937;DHT22;9163;48.818;8.976;2023-06-22T05:49:48;21.00;99.90
15937;DHT22;9163;48.818;8.976;2023-06-22T05:52:16;21.00;99.90
15937;DHT22;9163;48.818;8.976;2023-06-22T05:54:43;21.10;99.90
15937;DHT22;9163;48.818;8.976;2023-06-22T05:57:10;21.30;99.90
15937;DHT22;9163;48.818;8.976;2023-06-22T05:59:38;21.50;99.90
15937;DHT22;9163;48.818;8.976;2023-06-22T06:02:06;21.60;99.90
15937;DHT22;9163;48.818;8.976;2023-06-22T06:04:33;21.80;99.90
15937;DHT22;9163;48.818;8.976;2023-06-22T06:07:01;22.00;99.90
15937;DHT22;9163;48.818;8.976;2023-06-22T06:09:28;22.10;99.90
15937;DHT22;9163;48.818;8.976;2023-06-22T06:11:56;22.20;99.90
15937;DHT22;9163;48.818;8.976;2023-06-22T06:14:23;22.40;99.90
15937;DHT22;9163;48.818;8.976;2023-06-22T06:16:50;22.60;99.90
15937;DHT22;9163;48.818;8.976;2023-06-22T06:19:19;22.80;99.90
15937;DHT22;9163;48.818;8.976;2023-06-22T06:21:46;23.00;99.90
15937;DHT22;9163;48.818;8.976;2023-06-22T06:24:14;23.20;99.90
15937;DHT22;9163;48.818;8.976;2023-06-22T06:26:41;23.30;99.90
15937;DHT22;9163;48.818;8.976;2023-06-22T06:29:08;23.50;99.90
15937;DHT22;9163;48.818;8.976;2023-06-22T06:31:35;23.60;99.90
15937;DHT22;9163;48.818;8.976;2023-06-22T06:34:02;23.80;99.90
15937;DHT22;9163;48.818;8.976;2023-06-22T06:36:31;23.90;99.90
15937;DHT22;9163;48.818;8.976;2023-06-22T06:38:58;24.00;99.90
15937;DHT22;9163;48.818;8.976;2023-06-22T06:41:26;24.00;99.90
15937;DHT22;9163;48.818;8.976;2023-06-22T06:43:53;23.90;99.90
15937;DHT22;9163;48.818;8.976;2023-06-22T06:46:20;23.90;99.90
15937;DHT22;9163;48.818;8.976;2023-06-22T06:48:47;23.90;99.90
15937;DHT22;9163;48.818;8.976;2023-06-22T06:51:14;24.10;99.90
15937;DHT22;9163;48.818;8.976;2023-06-22T06:53:43;24.10;99.90
15937;DHT22;9163;48.818;8.976;2023-06-22T06:56:10;24.20;99.90
15937;DHT22;9163;48.818;8.976;2023-06-22T06:58:40;24.20;99.90
15937;DHT22;9163;48.818;8.976;2023-06-22T07:01:08;24.10;99.90
15937;DHT22;9163;48.818;8.976;2023-06-22T07:03:35;24.10;95.40
15937;DHT22;9163;48.818;8.976;2023-06-22T07:06:02;24.30;99.90
15937;DHT22;9163;48.818;8.976;2023-06-22T07:08:30;24.50;99.90
15937;DHT22;9163;48.818;8.976;2023-06-22T07:10:58;24.60;97.30
15937;DHT22;9163;48.818;8.976;2023-06-22T07:13:26;24.60;99.90
15937;DHT22;9163;48.818;8.976;2023-06-22T07:15:54;24.90;99.90
15937;DHT22;9163;48.818;8.976;2023-06-22T07:18:21;25.00;86.40
15937;DHT22;9163;48.818;8.976;2023-06-22T07:20:48;25.00;66.00
15937;DHT22;9163;48.818;8.976;2023-06-22T07:23:16;25.00;81.20
15937;DHT22;9163;48.818;8.976;2023-06-22T07:25:43;25.00;85.10
15937;DHT22;9163;48.818;8.976;2023-06-22T07:28:12;25.30;92.50
15937;DHT22;9163;48.818;8.976;2023-06-22T07:30:39;25.60;92.30
15937;DHT22;9163;48.818;8.976;2023-06-22T07:33:06;25.70;69.00
15937;DHT22;9163;48.818;8.976;2023-06-22T07:35:34;25.70;45.80
15937;DHT22;9163;48.818;8.976;2023-06-22T07:38:01;25.80;51.10
15937;DHT22;9163;48.818;8.976;2023-06-22T07:40:29;25.80;55.70
15937;DHT22;9163;48.818;8.976;2023-06-22T07:42:56;25.80;56.90
15937;DHT22;9163;48.818;8.976;2023-06-22T07:45:25;25.80;37.40
15937;DHT22;9163;48.818;8.976;2023-06-22T07:47:52;25.70;36.40
15937;DHT22;9163;48.818;8.976;2023-06-22T07:50:19;25.90;40.70
15937;DHT22;9163;48.818;8.976;2023-06-22T07:52:47;26.10;40.20
15937;DHT22;9163;48.818;8.976;2023-06-22T07:55:14;25.90;41.60
15937;DHT22;9163;48.818;8.976;2023-06-22T07:57:41;26.10;44.00
15937;DHT22;9163;48.818;8.976;2023-06-22T08:00:09;26.10;20.30
15937;DHT22;9163;48.818;8.976;2023-06-22T08:02:40;26.20;36.20
15937;DHT22;9163;48.818;8.976;2023-06-22T08:05:08;26.60;23.60
15937;DHT22;9163;48.818;8.976;2023-06-22T08:07:36;26.90;22.50
15937;DHT22;9163;48.818;8.976;2023-06-22T08:10:05;26.80;14.70
15937;DHT22;9163;48.818;8.976;2023-06-22T08:12:33;26.90;18.40
15937;DHT22;9163;48.818;8.976;2023-06-22T08:15:00;27.30;15.40
15937;DHT22;9163;48.818;8.976;2023-06-22T08:17:27;27.70;5.30
15937;DHT22;9163;48.818;8.976;2023-06-22T08:19:56;28.10;1.00
15937;DHT22;9163;48.818;8.976;2023-06-22T08:22:23;28.50;1.00
15937;DHT22;9163;48.818;8.976;2023-06-22T08:24:50;28.20;1.00
15937;DHT22;9163;48.818;8.976;2023-06-22T08:27:18;28.30;1.00
15937;DHT22;9163;48.818;8.976;2023-06-22T08:29:47;28.30;1.00
15937;DHT22;9163;48.818;8.976;2023-06-22T08:32:15;27.50;1.00
15937;DHT22;9163;48.818;8.976;2023-06-22T08:34:42;26.90;1.00
15937;DHT22;9163;48.818;8.976;2023-06-22T08:37:11;26.50;1.00
15937;DHT22;9163;48.818;8.976;2023-06-22T08:39:38;26.60;1.00
15937;DHT22;9163;48.818;8.976;2023-06-22T08:42:06;26.50;1.00
15937;DHT22;9163;48.818;8.976;2023-06-22T08:44:34;26.40;1.00
15937;DHT22;9163;48.818;8.976;2023-06-22T08:47:01;26.40;1.00
15937;DHT22;9163;48.818;8.976;2023-06-22T08:49:29;26.30;1.00
15937;DHT22;9163;48.818;8.976;2023-06-22T08:51:56;26.20;1.00
15937;DHT22;9163;48.818;8.976;2023-06-22T08:54:25;26.40;1.00
15937;DHT22;9163;48.818;8.976;2023-06-22T08:56:52;26.60;1.00
15937;DHT22;9163;48.818;8.976;2023-06-22T08:59:19;26.40;1.00
15937;DHT22;9163;48.818;8.976;2023-06-22T09:01:47;26.40;1.00
15937;DHT22;9163;48.818;8.976;2023-06-22T09:04:15;26.40;1.00
15937;DHT22;9163;48.818;8.976;2023-06-22T09:06:42;26.80;1.00
15937;DHT22;9163;48.818;8.976;2023-06-22T09:09:12;26.70;1.00
15937;DHT22;9163;48.818;8.976;2023-06-22T09:11:41;27.10;1.00
15937;DHT22;9163;48.818;8.976;2023-06-22T09:14:10;27.60;1.00
15937;DHT22;9163;48.818;8.976;2023-06-22T09:16:38;27.70;1.00
15937;DHT22;9163;48.818;8.976;2023-06-22T09:19:05;28.10;1.00
15937;DHT22;9163;48.818;8.976;2023-06-22T09:21:32;28.10;1.00
15937;DHT22;9163;48.818;8.976;2023-06-22T09:24:00;27.70;1.00
15937;DHT22;9163;48.818;8.976;2023-06-22T09:26:27;27.50;1.00
15937;DHT22;9163;48.818;8.976;2023-06-22T09:28:56;27.30;1.00
15937;DHT22;9163;48.818;8.976;2023-06-22T09:31:23;27.60;1.00
15937;DHT22;9163;48.818;8.976;2023-06-22T09:33:52;28.20;1.00
15937;DHT22;9163;48.818;8.976;2023-06-22T09:36:20;28.90;1.00
15937;DHT22;9163;48.818;8.976;2023-06-22T09:38:48;28.90;1.00
15937;DHT22;9163;48.818;8.976;2023-06-22T09:41:21;29.30;1.00
15937;DHT22;9163;48.818;8.976;2023-06-22T09:43:49;29.60;1.00
15937;DHT22;9163;48.818;8.976;2023-06-22T09:46:17;29.70;1.00
15937;DHT22;9163;48.818;8.976;2023-06-22T09:48:47;29.40;1.00
15937;DHT22;9163;48.818;8.976;2023-06-22T09:51:14;29.40;1.00
15937;DHT22;9163;48.818;8.976;2023-06-22T09:53:42;29.10;1.00
15937;DHT22;9163;48.818;8.976;2023-06-22T09:56:09;29.30;1.00
15937;DHT22;9163;48.818;8.976;2023-06-22T09:58:42;29.70;1.00
15937;DHT22;9163;48.818;8.976;2023-06-22T10:01:09;29.90;1.00
15937;DHT22;9163;48.818;8.976;2023-06-22T10:03:38;30.50;1.00
15937;DHT22;9163;48.818;8.976;2023-06-22T10:06:05;30.90;1.00
15937;DHT22;9163;48.818;8.976;2023-06-22T10:08:32;30.70;1.00
15937;DHT22;9163;48.818;8.976;2023-06-22T10:11:00;30.50;1.00
15937;DHT22;9163;48.818;8.976;2023-06-22T10:13:27;31.20;1.00
15937;DHT22;9163;48.818;8.976;2023-06-22T10:15:54;31.50;1.00
15937;DHT22;9163;48.818;8.976;2023-06-22T10:18:21;31.70;1.00
15937;DHT22;9163;48.818;8.976;2023-06-22T10:20:51;32.00;1.00
15937;DHT22;9163;48.818;8.976;2023-06-22T10:23:19;32.40;1.00
15937;DHT22;9163;48.818;8.976;2023-06-22T10:25:46;32.80;1.00
15937;DHT22;9163;48.818;8.976;2023-06-22T10:28:14;33.10;1.00
15937;DHT22;9163;48.818;8.976;2023-06-22T10:30:41;33.30;1.00
15937;DHT22;9163;48.818;8.976;2023-06-22T10:33:08;33.70;1.00
15937;DHT22;9163;48.818;8.976;2023-06-22T10:35:36;34.10;1.00
15937;DHT22;9163;48.818;8.976;2023-06-22T10:38:06;33.90;1.00
15937;DHT22;9163;48.818;8.976;2023-06-22T10:40:34;34.70;1.00
15937;DHT22;9163;48.818;8.976;2023-06-22T10:43:01;35.10;1.00
15937;DHT22;9163;48.818;8.976;2023-06-22T10:45:28;35.50;1.00
15937;DHT22;9163;48.818;8.976;2023-06-22T10:47:56;35.70;1.00
15937;DHT22;9163;48.818;8.976;2023-06-22T10:50:24;35.80;1.00
15937;DHT22;9163;48.818;8.976;2023-06-22T10:52:51;35.20;1.00
15937;DHT22;9163;48.818;8.976;2023-06-22T10:55:20;35.20;1.00
15937;DHT22;9163;48.818;8.976;2023-06-22T10:57:47;35.10;1.00
15937;DHT22;9163;48.818;8.976;2023-06-22T11:00:15;35.50;1.00
15937;DHT22;9163;48.818;8.976;2023-06-22T11:02:42;35.90;1.00
15937;DHT22;9163;48.818;8.976;2023-06-22T11:05:09;36.00;1.00
15937;DHT22;9163;48.818;8.976;2023-06-22T11:07:37;36.20;1.00
15937;DHT22;9163;48.818;8.976;2023-06-22T11:10:06;36.20;1.00
15937;DHT22;9163;48.818;8.976;2023-06-22T11:12:34;36.00;1.00
15937;DHT22;9163;48.818;8.976;2023-06-22T11:15:02;36.00;1.00
15937;DHT22;9163;48.818;8.976;2023-06-22T11:17:29;36.00;1.00
15937;DHT22;9163;48.818;8.976;2023-06-22T11:19:56;36.10;1.00
15937;DHT22;9163;48.818;8.976;2023-06-22T11:22:24;35.70;1.00
15937;DHT22;9163;48.818;8.976;2023-06-22T11:24:52;35.60;1.00
15937;DHT22;9163;48.818;8.976;2023-06-22T11:27:19;35.40;1.00
15937;DHT22;9163;48.818;8.976;2023-06-22T11:29:48;34.90;1.00
15937;DHT22;9163;48.818;8.976;2023-06-22T11:32:15;34.80;1.00
15937;DHT22;9163;48.818;8.976;2023-06-22T11:34:42;34.60;1.00
15937;DHT22;9163;48.818;8.976;2023-06-22T11:37:10;34.30;1.00
15937;DHT22;9163;48.818;8.976;2023-06-22T11:39:37;34.20;1.00
15937;DHT22;9163;48.818;8.976;2023-06-22T11:42:05;34.10;1.00
15937;DHT22;9163;48.818;8.976;2023-06-22T11:44:32;34.10;1.00
15937;DHT22;9163;48.818;8.976;2023-06-22T11:47:00;34.00;1.00
15937;DHT22;9163;48.818;8.976;2023-06-22T11:49:30;33.80;1.00
15937;DHT22;9163;48.818;8.976;2023-06-22T11:51:57;33.70;1.00
15937;DHT22;9163;48.818;8.976;2023-06-22T11:54:24;33.30;1.00
15937;DHT22;9163;48.818;8.976;2023-06-22T11:56:52;33.20;1.00
15937;DHT22;9163;48.818;8.976;2023-06-22T11:59:19;33.10;1.00
15937;DHT22;9163;48.818;8.976;2023-06-22T12:01:48;32.70;1.00
15937;DHT22;9163;48.818;8.976;2023-06-22T12:04:18;32.60;1.00
15937;DHT22;9163;48.818;8.976;2023-06-22T12:06:46;32.80;1.00
15937;DHT22;9163;48.818;8.976;2023-06-22T12:09:13;32.60;1.00
15937;DHT22;9163;48.818;8.976;2023-06-22T12:11:41;32.50;1.00
15937;DHT22;9163;48.818;8.976;2023-06-22T12:14:08;32.50;1.00
15937;DHT22;9163;48.818;8.976;2023-06-22T12:16:35;32.20;1.00
15937;DHT22;9163;48.818;8.976;2023-06-22T12:19:02;32.20;1.00
15937;DHT22;9163;48.818;8.976;2023-06-22T12:21:31;32.20;1.00
15937;DHT22;9163;48.818;8.976;2023-06-22T12:23:58;31.90;1.00
15937;DHT22;9163;48.818;8.976;2023-06-22T12:26:25;31.60;1.00
15937;DHT22;9163;48.818;8.976;2023-06-22T12:28:52;31.60;1.00
15937;DHT22;9163;48.818;8.976;2023-06-22T12:31:20;31.50;1.00
15937;DHT22;9163;48.818;8.976;2023-06-22T12:33:47;31.30;1.00
15937;DHT22;9163;48.818;8.976;2023-06-22T12:36:14;31.30;1.00
15937;DHT22;9163;48.818;8.976;2023-06-22T12:38:43;31.50;1.00
15937;DHT22;9163;48.818;8.976;2023-06-22T12:41:11;31.30;1.00
15937;DHT22;9163;48.818;8.976;2023-06-22T12:43:38;31.30;1.00
15937;DHT22;9163;48.818;8.976;2023-06-22T12:46:05;31.50;1.00
15937;DHT22;9163;48.818;8.976;2023-06-22T12:48:32;31.50;1.00
15937;DHT22;9163;48.818;8.976;2023-06-22T12:51:00;31.50;1.00
15937;DHT22;9163;48.818;8.976;2023-06-22T12:53:27;31.30;1.00
15937;DHT22;9163;48.818;8.976;2023-06-22T12:55:56;31.40;1.00
15937;DHT22;9163;48.818;8.976;2023-06-22T12:58:24;31.40;1.00
15937;DHT22;9163;48.818;8.976;2023-06-22T13:00:51;31.30;1.00
15937;DHT22;9163;48.818;8.976;2023-06-22T13:03:18;30.90;1.00
15937;DHT22;9163;48.818;8.976;2023-06-22T13:05:46;30.80;1.00
15937;DHT22;9163;48.818;8.976;2023-06-22T13:08:13;30.60;1.00
15937;DHT22;9163;48.818;8.976;2023-06-22T13:10:40;30.50;1.00
15937;DHT22;9163;48.818;8.976;2023-06-22T13:13:09;30.40;1.00
15937;DHT22;9163;48.818;8.976;2023-06-22T13:15:36;30.40;1.00
15937;DHT22;9163;48.818;8.976;2023-06-22T13:18:03;30.40;1.00
15937;DHT22;9163;48.818;8.976;2023-06-22T13:20:30;30.20;1.00
15937;DHT22;9163;48.818;8.976;2023-06-22T13:22:58;30.30;1.00
15937;DHT22;9163;48.818;8.976;2023-06-22T13:25:25;30.30;1.00
15937;DHT22;9163;48.818;8.976;2023-06-22T13:27:52;30.30;1.00
15937;DHT22;9163;48.818;8.976;2023-06-22T13:30:21;30.40;1.00
15937;DHT22;9163;48.818;8.976;2023-06-22T13:32:48;30.50;1.00
15937;DHT22;9163;48.818;8.976;2023-06-22T13:35:15;30.40;1.00
15937;DHT22;9163;48.818;8.976;2023-06-22T13:37:43;30.40;1.00
15937;DHT22;9163;48.818;8.976;2023-06-22T13:40:10;30.50;1.00
15937;DHT22;9163;48.818;8.976;2023-06-22T13:42:37;30.70;1.00
15937;DHT22;9163;48.818;8.976;2023-06-22T13:45:07;30.90;1.00
15937;DHT22;9163;48.818;8.976;2023-06-22T13:47:36;30.90;1.00
15937;DHT22;9163;48.818;8.976;2023-06-22T13:50:04;30.60;1.00
15937;DHT22;9163;48.818;8.976;2023-06-22T13:52:31;30.50;1.00
15937;DHT22;9163;48.818;8.976;2023-06-22T13:54:58;30.30;1.00
15937;DHT22;9163;48.818;8.976;2023-06-22T13:57:26;30.20;1.00
15937;DHT22;9163;48.818;8.976;2023-06-22T13:59:53;30.20;1.00
15937;DHT22;9163;48.818;8.976;2023-06-22T14:02:20;30.10;1.00
15937;DHT22;9163;48.818;8.976;2023-06-22T14:04:49;30.10;1.00
15937;DHT22;9163;48.818;8.976;2023-06-22T14:07:16;30.30;1.00
15937;DHT22;9163;48.818;8.976;2023-06-22T14:09:45;30.30;1.00
15937;DHT22;9163;48.818;8.976;2023-06-22T14:12:12;30.30;1.00
15937;DHT22;9163;48.818;8.976;2023-06-22T14:14:40;30.30;1.00
15937;DHT22;9163;48.818;8.976;2023-06-22T14:17:07;30.30;1.00
15937;DHT22;9163;48.818;8.976;2023-06-22T14:19:34;30.40;1.00
15937;DHT22;9163;48.818;8.976;2023-06-22T14:22:03;30.30;1.00
15937;DHT22;9163;48.818;8.976;2023-06-22T14:24:30;30.40;1.00
15937;DHT22;9163;48.818;8.976;2023-06-22T14:26:58;30.60;1.00
15937;DHT22;9163;48.818;8.976;2023-06-22T14:29:28;30.70;1.00
15937;DHT22;9163;48.818;8.976;2023-06-22T14:31:55;31.00;1.00
15937;DHT22;9163;48.818;8.976;2023-06-22T14:34:22;31.00;1.00
15937;DHT22;9163;48.818;8.976;2023-06-22T14:36:50;31.20;1.00
15937;DHT22;9163;48.818;8.976;2023-06-22T14:39:18;31.10;1.00
15937;DHT22;9163;48.818;8.976;2023-06-22T14:41:46;31.10;1.00
15937;DHT22;9163;48.818;8.976;2023-06-22T14:44:14;30.80;1.00
15937;DHT22;9163;48.818;8.976;2023-06-22T14:46:41;30.70;1.00
15937;DHT22;9163;48.818;8.976;2023-06-22T14:49:08;30.70;1.00
15937;DHT22;9163;48.818;8.976;2023-06-22T14:51:36;31.00;1.00
15937;DHT22;9163;48.818;8.976;2023-06-22T14:54:03;31.10;1.00
15937;DHT22;9163;48.818;8.976;2023-06-22T14:56:32;31.20;1.00
15937;DHT22;9163;48.818;8.976;2023-06-22T14:58:59;31.00;1.00
15937;DHT22;9163;48.818;8.976;2023-06-22T15:01:26;31.20;1.00
15937;DHT22;9163;48.818;8.976;2023-06-22T15:03:53;31.50;99.90
15937;DHT22;9163;48.818;8.976;2023-06-22T15:06:21;31.30;99.90
15937;DHT22;9163;48.818;8.976;2023-06-22T15:08:48;31.40;99.90
15937;DHT22;9163;48.818;8.976;2023-06-22T15:11:15;31.30;99.90
15937;DHT22;9163;48.818;8.976;2023-06-22T15:13:44;31.10;99.90
15937;DHT22;9163;48.818;8.976;2023-06-22T15:16:11;30.70;99.90
15937;DHT22;9163;48.818;8.976;2023-06-22T15:18:38;30.50;99.90
15937;DHT22;9163;48.818;8.976;2023-06-22T15:21:07;30.50;99.90
15937;DHT22;9163;48.818;8.976;2023-06-22T15:23:34;30.70;99.90
15937;DHT22;9163;48.818;8.976;2023-06-22T15:26:03;30.60;99.90
15937;DHT22;9163;48.818;8.976;2023-06-22T15:28:31;30.50;99.90
15937;DHT22;9163;48.818;8.976;2023-06-22T15:31:00;30.20;99.90
15937;DHT22;9163;48.818;8.976;2023-06-22T15:33:28;30.00;99.90
15937;DHT22;9163;48.818;8.976;2023-06-22T15:35:57;29.90;99.90
15937;DHT22;9163;48.818;8.976;2023-06-22T15:38:29;29.80;99.90
15937;DHT22;9163;48.818;8.976;2023-06-22T15:40:57;29.60;99.90
15937;DHT22;9163;48.818;8.976;2023-06-22T15:43:24;29.50;99.90
15937;DHT22;9163;48.818;8.976;2023-06-22T15:45:51;29.60;99.90
15937;DHT22;9163;48.818;8.976;2023-06-22T15:48:21;29.70;99.90
15937;DHT22;9163;48.818;8.976;2023-06-22T15:50:49;29.90;99.90
15937;DHT22;9163;48.818;8.976;2023-06-22T15:53:16;29.70;99.90
15937;DHT22;9163;48.818;8.976;2023-06-22T15:55:44;29.80;99.90